Main page
METAR-TAF:

METAR-TAF

Airports :

Damascus, Syria

Damascus International Airport

latitude: 33-25N, longitude: 036-31E, elevation: 608 m

Current weather observation

The report was made 1 hour and 5 minutes ago, at 11:00 UTC
Wind 10 kt from the West/Southwest
Temperature 38°C
Humidity 9%
Pressure 1010 hPa
Visibility 10 km or more
no clouds below 1500 m and no cumulonimbus

METAR: OSDI 261100Z 25010KT CAVOK 38/M00 Q1010

Time: 15:05 (12:05 UTC)


TAF: missing

Weather observations and forecasts of more than 4000 airports (METAR and TAF reports).

The available stations are represented by yellow and red dots on the map.

Hover mouse over dot to see the name of the station.

Then click to see weather observations and forecasts.

To change the map : click on the green buttons with a black cross to zoom in, on the green button with a dash to zoom out, or on the green arrows for adjacent maps.


METAR-TAF: